Terminal Aerodrome Forecast
Issued by NWS Charleston, WV

Current Version | Previous Version | Graphics & Text | Print | Product List | Glossary On
Versions: 1 2 3 4 5 6 7 8 9 10 11 12 13 14 15 16 17 18 19 20 21 22 23 24 25
000
FTUS41 KRLX 261120
TAFPKB
TAF
KPKB 261120Z 2612/2712 23008KT 2SM +TSRA BKN030CB
     FM261300 23009G16KT 4SM SHRA VCTS BKN040CB
     FM262300 27007KT 3SM -SHRA VCTS BKN022CB
     FM270500 36004KT 5SM -SHRA BKN019
     FM270900 02004KT 2SM -DZ BKN008=

USA.gov is the U.S. government's official web portal to all federal, state and local government web resources and services.